Аэропорт: Брянск. Брянск

ICAO: UUBP

METAR:
2021-04-21 21:30:00
UUBP 212130Z AUTO 17003MPS 9999 NCD 05/04 Q1012
METAR:
2021-04-21 13:51:00
TAF UUBP 211351Z 2115/2124 20005MPS 9999 BKN070 TEMPO 2115/2124 -SHRA BKN025CB